sensor_id;sensor_type;location;lat;lon;timestamp;pressure;altitude;pressure_sealevel;temperature;humidity
67980;BME280;54760;47.490;19.030;2023-03-12T00:02:24;99498.09;;;2.59;57.24
67980;BME280;54760;47.490;19.030;2023-03-12T00:04:50;99495.78;;;2.54;57.28
67980;BME280;54760;47.490;19.030;2023-03-12T00:07:15;99508.84;;;2.45;57.51
67980;BME280;54760;47.490;19.030;2023-03-12T00:09:41;99517.44;;;2.61;56.91
67980;BME280;54760;47.490;19.030;2023-03-12T00:12:06;99515.03;;;2.49;57.26
67980;BME280;54760;47.490;19.030;2023-03-12T00:14:32;99510.47;;;2.64;56.63
67980;BME280;54760;47.490;19.030;2023-03-12T00:16:58;99513.59;;;2.62;56.55
67980;BME280;54760;47.490;19.030;2023-03-12T00:19:23;99513.59;;;2.70;56.03
67980;BME280;54760;47.490;19.030;2023-03-12T00:21:49;99520.53;;;2.64;55.67
67980;BME280;54760;47.490;19.030;2023-03-12T00:24:14;99506.94;;;2.49;56.27
67980;BME280;54760;47.490;19.030;2023-03-12T00:26:41;99522.41;;;2.56;55.71
67980;BME280;54760;47.490;19.030;2023-03-12T00:29:07;99529.03;;;2.62;55.47
67980;BME280;54760;47.490;19.030;2023-03-12T00:31:32;99525.12;;;2.59;54.98
67980;BME280;54760;47.490;19.030;2023-03-12T00:33:59;99529.44;;;2.68;54.74
67980;BME280;54760;47.490;19.030;2023-03-12T00:36:27;99542.09;;;2.53;54.79
67980;BME280;54760;47.490;19.030;2023-03-12T00:38:54;99550.94;;;2.50;54.34
67980;BME280;54760;47.490;19.030;2023-03-12T00:41:20;99558.28;;;2.49;54.25
67980;BME280;54760;47.490;19.030;2023-03-12T00:43:47;99560.66;;;2.61;54.03
67980;BME280;54760;47.490;19.030;2023-03-12T00:46:12;99566.44;;;2.56;53.59
67980;BME280;54760;47.490;19.030;2023-03-12T00:48:38;99563.78;;;2.67;53.32
67980;BME280;54760;47.490;19.030;2023-03-12T00:51:04;99567.56;;;2.55;53.62
67980;BME280;54760;47.490;19.030;2023-03-12T00:53:30;99578.44;;;2.62;53.28
67980;BME280;54760;47.490;19.030;2023-03-12T00:55:55;99578.81;;;2.61;53.36
67980;BME280;54760;47.490;19.030;2023-03-12T00:58:21;99589.19;;;2.55;53.34
67980;BME280;54760;47.490;19.030;2023-03-12T01:00:46;99588.47;;;2.66;52.96
67980;BME280;54760;47.490;19.030;2023-03-12T01:03:12;99583.59;;;2.89;52.59
67980;BME280;54760;47.490;19.030;2023-03-12T01:05:38;99588.19;;;2.85;52.41
67980;BME280;54760;47.490;19.030;2023-03-12T01:08:06;99582.34;;;2.69;52.73
67980;BME280;54760;47.490;19.030;2023-03-12T01:10:32;99581.94;;;2.67;52.96
67980;BME280;54760;47.490;19.030;2023-03-12T01:12:57;99582.59;;;2.49;53.11
67980;BME280;54760;47.490;19.030;2023-03-12T01:15:23;99569.47;;;2.44;53.11
67980;BME280;54760;47.490;19.030;2023-03-12T01:17:49;99581.47;;;2.54;52.89
67980;BME280;54760;47.490;19.030;2023-03-12T01:20:15;99582.09;;;2.33;52.74
67980;BME280;54760;47.490;19.030;2023-03-12T01:22:40;99573.03;;;2.59;52.36
67980;BME280;54760;47.490;19.030;2023-03-12T01:25:06;99573.81;;;2.67;52.21
67980;BME280;54760;47.490;19.030;2023-03-12T01:27:32;99563.72;;;2.56;51.93
67980;BME280;54760;47.490;19.030;2023-03-12T01:29:57;99564.41;;;2.39;52.39
67980;BME280;54760;47.490;19.030;2023-03-12T01:32:22;99566.69;;;2.34;52.44
67980;BME280;54760;47.490;19.030;2023-03-12T01:34:48;99569.81;;;2.39;52.44
67980;BME280;54760;47.490;19.030;2023-03-12T01:37:13;99575.22;;;2.39;52.68
67980;BME280;54760;47.490;19.030;2023-03-12T01:39:39;99568.34;;;2.52;52.21
67980;BME280;54760;47.490;19.030;2023-03-12T01:42:04;99581.44;;;2.47;52.52
67980;BME280;54760;47.490;19.030;2023-03-12T01:44:30;99588.03;;;2.56;52.42
67980;BME280;54760;47.490;19.030;2023-03-12T01:46:55;99584.19;;;2.57;52.28
67980;BME280;54760;47.490;19.030;2023-03-12T01:49:33;99594.53;;;2.45;52.54
67980;BME280;54760;47.490;19.030;2023-03-12T01:52:08;99596.75;;;2.32;53.02
67980;BME280;54760;47.490;19.030;2023-03-12T01:54:38;99607.56;;;2.32;53.13
67980;BME280;54760;47.490;19.030;2023-03-12T01:57:09;99603.03;;;2.43;52.79
67980;BME280;54760;47.490;19.030;2023-03-12T01:59:38;99604.44;;;2.30;53.22
67980;BME280;54760;47.490;19.030;2023-03-12T02:02:07;99610.34;;;2.43;52.74
67980;BME280;54760;47.490;19.030;2023-03-12T02:04:34;99609.91;;;2.37;52.82
67980;BME280;54760;47.490;19.030;2023-03-12T02:07:10;99618.78;;;2.34;53.12
67980;BME280;54760;47.490;19.030;2023-03-12T02:09:39;99625.34;;;2.37;52.87
67980;BME280;54760;47.490;19.030;2023-03-12T02:12:06;99628.41;;;2.35;52.81
67980;BME280;54760;47.490;19.030;2023-03-12T02:14:31;99643.81;;;2.31;52.83
67980;BME280;54760;47.490;19.030;2023-03-12T02:16:57;99650.19;;;2.53;52.41
67980;BME280;54760;47.490;19.030;2023-03-12T02:19:56;99648.69;;;2.59;52.43
67980;BME280;54760;47.490;19.030;2023-03-12T02:22:24;99655.06;;;2.40;53.08
67980;BME280;54760;47.490;19.030;2023-03-12T02:27:29;99651.56;;;2.33;53.31
67980;BME280;54760;47.490;19.030;2023-03-12T02:29:56;99653.81;;;2.27;53.83
67980;BME280;54760;47.490;19.030;2023-03-12T02:32:26;99656.72;;;2.48;53.17
67980;BME280;54760;47.490;19.030;2023-03-12T02:34:52;99651.19;;;2.34;53.77
67980;BME280;54760;47.490;19.030;2023-03-12T02:37:18;99668.47;;;2.26;54.42
67980;BME280;54760;47.490;19.030;2023-03-12T02:39:50;99657.09;;;2.06;55.24
67980;BME280;54760;47.490;19.030;2023-03-12T02:42:18;99658.63;;;2.04;55.86
67980;BME280;54760;47.490;19.030;2023-03-12T02:44:44;99670.44;;;1.89;56.57
67980;BME280;54760;47.490;19.030;2023-03-12T02:47:10;99674.78;;;1.63;57.99
67980;BME280;54760;47.490;19.030;2023-03-12T02:49:35;99670.47;;;1.92;57.39
67980;BME280;54760;47.490;19.030;2023-03-12T02:52:02;99684.25;;;1.84;57.90
67980;BME280;54760;47.490;19.030;2023-03-12T02:54:28;99689.50;;;1.69;58.79
67980;BME280;54760;47.490;19.030;2023-03-12T02:56:53;99690.81;;;1.83;58.37
67980;BME280;54760;47.490;19.030;2023-03-12T02:59:20;99690.91;;;1.93;58.19
67980;BME280;54760;47.490;19.030;2023-03-12T03:01:46;99698.19;;;1.86;58.42
67980;BME280;54760;47.490;19.030;2023-03-12T03:04:12;99706.19;;;1.79;58.80
67980;BME280;54760;47.490;19.030;2023-03-12T03:06:41;99703.31;;;1.64;59.31
67980;BME280;54760;47.490;19.030;2023-03-12T03:09:07;99719.72;;;1.82;59.04
67980;BME280;54760;47.490;19.030;2023-03-12T03:11:33;99719.84;;;1.93;58.77
67980;BME280;54760;47.490;19.030;2023-03-12T03:13:58;99720.44;;;1.76;59.53
67980;BME280;54760;47.490;19.030;2023-03-12T03:16:24;99723.38;;;1.67;59.93
67980;BME280;54760;47.490;19.030;2023-03-12T03:18:50;99719.56;;;1.68;60.19
67980;BME280;54760;47.490;19.030;2023-03-12T03:21:16;99731.09;;;1.65;60.48
67980;BME280;54760;47.490;19.030;2023-03-12T03:23:43;99735.72;;;1.64;60.68
67980;BME280;54760;47.490;19.030;2023-03-12T03:26:09;99746.50;;;1.64;60.68
67980;BME280;54760;47.490;19.030;2023-03-12T03:28:34;99742.41;;;1.78;60.20
67980;BME280;54760;47.490;19.030;2023-03-12T03:31:00;99741.69;;;1.81;59.99
67980;BME280;54760;47.490;19.030;2023-03-12T03:33:30;99747.84;;;2.14;58.92
67980;BME280;54760;47.490;19.030;2023-03-12T03:35:58;99758.00;;;1.61;60.20
67980;BME280;54760;47.490;19.030;2023-03-12T03:38:25;99760.44;;;1.70;60.18
67980;BME280;54760;47.490;19.030;2023-03-12T03:40:51;99765.72;;;1.59;60.19
67980;BME280;54760;47.490;19.030;2023-03-12T03:43:17;99756.84;;;1.92;58.81
67980;BME280;54760;47.490;19.030;2023-03-12T03:45:43;99753.62;;;1.80;59.10
67980;BME280;54760;47.490;19.030;2023-03-12T03:48:11;99761.31;;;1.78;58.89
67980;BME280;54760;47.490;19.030;2023-03-12T03:50:38;99764.34;;;1.76;59.10
67980;BME280;54760;47.490;19.030;2023-03-12T03:53:04;99767.03;;;1.72;59.36
67980;BME280;54760;47.490;19.030;2023-03-12T03:55:30;99764.47;;;1.53;59.86
67980;BME280;54760;47.490;19.030;2023-03-12T03:57:55;99766.75;;;1.51;60.03
67980;BME280;54760;47.490;19.030;2023-03-12T04:00:21;99757.81;;;1.47;60.51
67980;BME280;54760;47.490;19.030;2023-03-12T04:02:46;99762.31;;;1.36;60.82
67980;BME280;54760;47.490;19.030;2023-03-12T04:05:12;99769.31;;;1.14;61.67
67980;BME280;54760;47.490;19.030;2023-03-12T04:07:37;99781.88;;;1.59;60.43
67980;BME280;54760;47.490;19.030;2023-03-12T04:10:04;99776.94;;;1.35;61.22
67980;BME280;54760;47.490;19.030;2023-03-12T04:12:29;99787.41;;;1.40;61.10
67980;BME280;54760;47.490;19.030;2023-03-12T04:14:55;99779.56;;;1.58;60.68
67980;BME280;54760;47.490;19.030;2023-03-12T04:17:21;99776.97;;;1.39;61.38
67980;BME280;54760;47.490;19.030;2023-03-12T04:19:47;99790.34;;;1.58;60.42
67980;BME280;54760;47.490;19.030;2023-03-12T04:22:12;99794.75;;;1.43;61.60
67980;BME280;54760;47.490;19.030;2023-03-12T04:24:38;99803.69;;;1.47;61.33
67980;BME280;54760;47.490;19.030;2023-03-12T04:27:03;99797.88;;;1.45;61.28
67980;BME280;54760;47.490;19.030;2023-03-12T04:29:28;99809.78;;;1.18;62.40
67980;BME280;54760;47.490;19.030;2023-03-12T04:31:54;99810.25;;;1.46;61.66
67980;BME280;54760;47.490;19.030;2023-03-12T04:34:19;99829.62;;;1.29;62.34
67980;BME280;54760;47.490;19.030;2023-03-12T04:36:45;99828.06;;;1.28;62.90
67980;BME280;54760;47.490;19.030;2023-03-12T04:39:11;99833.94;;;1.34;62.59
67980;BME280;54760;47.490;19.030;2023-03-12T04:41:37;99835.78;;;1.29;62.85
67980;BME280;54760;47.490;19.030;2023-03-12T04:44:03;99849.94;;;1.23;63.40
67980;BME280;54760;47.490;19.030;2023-03-12T04:46:29;99849.94;;;1.23;63.05
67980;BME280;54760;47.490;19.030;2023-03-12T04:48:54;99856.00;;;1.16;63.31
67980;BME280;54760;47.490;19.030;2023-03-12T04:51:20;99854.31;;;1.31;63.31
67980;BME280;54760;47.490;19.030;2023-03-12T04:53:46;99845.53;;;1.38;62.93
67980;BME280;54760;47.490;19.030;2023-03-12T04:56:11;99849.84;;;1.16;63.88
67980;BME280;54760;47.490;19.030;2023-03-12T04:58:37;99850.97;;;1.15;64.16
67980;BME280;54760;47.490;19.030;2023-03-12T05:01:03;99861.59;;;1.27;64.12
67980;BME280;54760;47.490;19.030;2023-03-12T05:03:29;99852.94;;;1.18;64.64
67980;BME280;54760;47.490;19.030;2023-03-12T05:05:55;99861.47;;;1.20;64.76
67980;BME280;54760;47.490;19.030;2023-03-12T05:08:20;99868.59;;;1.32;64.24
67980;BME280;54760;47.490;19.030;2023-03-12T05:10:46;99870.81;;;1.26;64.46
67980;BME280;54760;47.490;19.030;2023-03-12T05:13:16;99861.31;;;1.13;64.92
67980;BME280;54760;47.490;19.030;2023-03-12T05:15:42;99858.47;;;1.25;64.75
67980;BME280;54760;47.490;19.030;2023-03-12T05:18:08;99867.81;;;1.31;64.54
67980;BME280;54760;47.490;19.030;2023-03-12T05:20:33;99866.34;;;1.37;63.93
67980;BME280;54760;47.490;19.030;2023-03-12T05:22:59;99861.88;;;1.48;63.63
67980;BME280;54760;47.490;19.030;2023-03-12T05:25:24;99873.81;;;1.21;64.39
67980;BME280;54760;47.490;19.030;2023-03-12T05:27:50;99868.50;;;1.28;63.92
67980;BME280;54760;47.490;19.030;2023-03-12T05:30:15;99868.22;;;1.10;64.68
67980;BME280;54760;47.490;19.030;2023-03-12T05:32:41;99890.34;;;1.19;64.59
67980;BME280;54760;47.490;19.030;2023-03-12T05:35:06;99888.84;;;1.22;64.69
67980;BME280;54760;47.490;19.030;2023-03-12T05:37:32;99897.69;;;1.22;64.44
67980;BME280;54760;47.490;19.030;2023-03-12T05:39:57;99894.87;;;1.38;63.81
67980;BME280;54760;47.490;19.030;2023-03-12T05:42:23;99897.56;;;1.38;63.75
67980;BME280;54760;47.490;19.030;2023-03-12T05:44:49;99896.75;;;1.34;63.29
67980;BME280;54760;47.490;19.030;2023-03-12T05:47:16;99897.16;;;1.36;63.44
67980;BME280;54760;47.490;19.030;2023-03-12T05:49:41;99901.87;;;1.43;63.05
67980;BME280;54760;47.490;19.030;2023-03-12T05:52:08;99903.16;;;1.26;63.99
67980;BME280;54760;47.490;19.030;2023-03-12T05:54:34;99904.66;;;1.46;63.00
67980;BME280;54760;47.490;19.030;2023-03-12T05:56:59;99924.84;;;1.33;63.37
67980;BME280;54760;47.490;19.030;2023-03-12T05:59:24;99925.37;;;1.42;62.84
67980;BME280;54760;47.490;19.030;2023-03-12T06:01:50;99933.81;;;1.63;62.05
67980;BME280;54760;47.490;19.030;2023-03-12T06:04:15;99937.66;;;1.62;61.76
67980;BME280;54760;47.490;19.030;2023-03-12T06:06:41;99930.69;;;1.61;61.84
67980;BME280;54760;47.490;19.030;2023-03-12T06:09:06;99943.16;;;1.69;61.53
67980;BME280;54760;47.490;19.030;2023-03-12T06:11:33;99951.91;;;1.86;61.01
67980;BME280;54760;47.490;19.030;2023-03-12T06:13:59;99954.34;;;1.71;61.68
67980;BME280;54760;47.490;19.030;2023-03-12T06:16:25;99960.44;;;1.91;61.38
67980;BME280;54760;47.490;19.030;2023-03-12T06:18:53;99963.41;;;1.83;61.17
67980;BME280;54760;47.490;19.030;2023-03-12T06:21:21;99964.22;;;1.87;60.62
67980;BME280;54760;47.490;19.030;2023-03-12T06:23:47;99974.41;;;1.97;60.31
67980;BME280;54760;47.490;19.030;2023-03-12T06:26:14;99982.19;;;2.02;60.38
67980;BME280;54760;47.490;19.030;2023-03-12T06:28:40;99977.28;;;2.07;60.00
67980;BME280;54760;47.490;19.030;2023-03-12T06:31:06;99982.97;;;2.02;59.96
67980;BME280;54760;47.490;19.030;2023-03-12T06:33:33;99987.25;;;2.30;59.01
67980;BME280;54760;47.490;19.030;2023-03-12T06:36:00;99986.25;;;2.75;58.11
67980;BME280;54760;47.490;19.030;2023-03-12T06:38:25;99987.19;;;3.67;54.97
67980;BME280;54760;47.490;19.030;2023-03-12T06:41:03;99985.63;;;4.96;51.21
67980;BME280;54760;47.490;19.030;2023-03-12T06:43:29;99976.41;;;6.18;46.91
67980;BME280;54760;47.490;19.030;2023-03-12T06:45:57;99972.50;;;6.40;45.72
67980;BME280;54760;47.490;19.030;2023-03-12T06:48:24;99981.81;;;6.39;45.81
67980;BME280;54760;47.490;19.030;2023-03-12T06:50:50;99982.47;;;6.78;44.76
67980;BME280;54760;47.490;19.030;2023-03-12T06:53:16;99994.09;;;7.52;42.82
67980;BME280;54760;47.490;19.030;2023-03-12T06:55:42;99994.41;;;7.61;42.52
67980;BME280;54760;47.490;19.030;2023-03-12T06:58:08;100000.47;;;7.82;41.91
67980;BME280;54760;47.490;19.030;2023-03-12T07:00:33;100006.50;;;8.83;39.70
67980;BME280;54760;47.490;19.030;2023-03-12T07:02:59;100007.69;;;8.48;40.23
67980;BME280;54760;47.490;19.030;2023-03-12T07:05:26;100008.16;;;8.39;40.18
67980;BME280;54760;47.490;19.030;2023-03-12T07:07:52;100005.34;;;9.41;37.83
67980;BME280;54760;47.490;19.030;2023-03-12T07:10:17;100013.34;;;9.55;37.86
67980;BME280;54760;47.490;19.030;2023-03-12T07:12:43;100028.88;;;8.33;39.74
67980;BME280;54760;47.490;19.030;2023-03-12T07:15:09;100020.66;;;9.04;38.50
67980;BME280;54760;47.490;19.030;2023-03-12T07:17:34;100026.25;;;9.24;37.80
67980;BME280;54760;47.490;19.030;2023-03-12T07:20:00;100021.53;;;10.05;36.56
67980;BME280;54760;47.490;19.030;2023-03-12T07:22:25;100027.81;;;11.44;34.30
67980;BME280;54760;47.490;19.030;2023-03-12T07:24:51;100028.66;;;11.93;32.87
67980;BME280;54760;47.490;19.030;2023-03-12T07:27:17;100029.56;;;12.51;32.88
67980;BME280;54760;47.490;19.030;2023-03-12T07:29:42;100026.59;;;13.54;30.49
67980;BME280;54760;47.490;19.030;2023-03-12T07:32:08;100036.31;;;13.58;29.53
67980;BME280;54760;47.490;19.030;2023-03-12T07:34:34;100035.38;;;13.99;29.69
67980;BME280;54760;47.490;19.030;2023-03-12T07:37:00;100037.75;;;13.09;30.21
67980;BME280;54760;47.490;19.030;2023-03-12T07:39:25;100023.25;;;15.52;27.27
67980;BME280;54760;47.490;19.030;2023-03-12T07:41:51;100034.34;;;16.38;26.12
67980;BME280;54760;47.490;19.030;2023-03-12T07:44:16;100035.31;;;15.86;25.95
67980;BME280;54760;47.490;19.030;2023-03-12T07:46:42;100039.75;;;15.83;25.86
67980;BME280;54760;47.490;19.030;2023-03-12T07:49:07;100043.31;;;14.79;27.19
67980;BME280;54760;47.490;19.030;2023-03-12T07:51:33;100043.16;;;15.26;26.35
67980;BME280;54760;47.490;19.030;2023-03-12T07:53:58;100049.03;;;14.84;27.23
67980;BME280;54760;47.490;19.030;2023-03-12T07:56:24;100046.44;;;15.11;27.20
67980;BME280;54760;47.490;19.030;2023-03-12T07:58:49;100050.28;;;15.67;25.76
67980;BME280;54760;47.490;19.030;2023-03-12T08:01:15;100047.63;;;16.03;26.00
67980;BME280;54760;47.490;19.030;2023-03-12T08:03:41;100051.78;;;14.15;27.29
67980;BME280;54760;47.490;19.030;2023-03-12T08:06:07;100053.22;;;16.39;26.20
67980;BME280;54760;47.490;19.030;2023-03-12T08:08:32;100051.31;;;16.00;25.39
67980;BME280;54760;47.490;19.030;2023-03-12T08:10:58;100056.59;;;15.14;25.54
67980;BME280;54760;47.490;19.030;2023-03-12T08:13:25;100050.97;;;17.62;23.12
67980;BME280;54760;47.490;19.030;2023-03-12T08:15:51;100045.75;;;18.97;21.81
67980;BME280;54760;47.490;19.030;2023-03-12T08:18:18;100047.81;;;19.76;20.54
67980;BME280;54760;47.490;19.030;2023-03-12T08:20:44;100048.66;;;20.77;19.63
67980;BME280;54760;47.490;19.030;2023-03-12T08:23:09;100063.28;;;19.18;20.54
67980;BME280;54760;47.490;19.030;2023-03-12T08:25:35;100069.53;;;17.10;22.49
67980;BME280;54760;47.490;19.030;2023-03-12T08:28:02;100065.53;;;18.28;21.60
67980;BME280;54760;47.490;19.030;2023-03-12T08:30:29;100057.59;;;20.61;19.52
67980;BME280;54760;47.490;19.030;2023-03-12T08:32:54;100062.47;;;22.12;18.00
67980;BME280;54760;47.490;19.030;2023-03-12T08:35:20;100063.59;;;19.84;19.56
67980;BME280;54760;47.490;19.030;2023-03-12T08:37:46;100065.84;;;22.92;19.61
67980;BME280;54760;47.490;19.030;2023-03-12T08:40:11;100075.53;;;21.32;18.22
67980;BME280;54760;47.490;19.030;2023-03-12T08:42:41;100073.47;;;22.92;16.06
67980;BME280;54760;47.490;19.030;2023-03-12T08:45:08;100065.91;;;23.87;15.91
67980;BME280;54760;47.490;19.030;2023-03-12T08:47:34;100069.38;;;19.66;17.50
67980;BME280;54760;47.490;19.030;2023-03-12T08:50:00;100064.03;;;21.50;15.90
67980;BME280;54760;47.490;19.030;2023-03-12T08:52:26;100073.34;;;22.64;15.04
67980;BME280;54760;47.490;19.030;2023-03-12T08:54:52;100069.59;;;21.82;16.62
67980;BME280;54760;47.490;19.030;2023-03-12T08:57:17;100061.78;;;24.04;15.32
67980;BME280;54760;47.490;19.030;2023-03-12T08:59:43;100066.22;;;22.52;13.96
67980;BME280;54760;47.490;19.030;2023-03-12T09:02:10;100051.69;;;23.73;13.84
67980;BME280;54760;47.490;19.030;2023-03-12T09:04:36;100047.88;;;23.65;14.71
67980;BME280;54760;47.490;19.030;2023-03-12T09:07:02;100057.84;;;22.52;16.71
67980;BME280;54760;47.490;19.030;2023-03-12T09:09:27;100045.28;;;24.70;14.27
67980;BME280;54760;47.490;19.030;2023-03-12T09:11:53;100039.97;;;23.86;14.34
67980;BME280;54760;47.490;19.030;2023-03-12T09:14:19;100029.75;;;24.16;14.75
67980;BME280;54760;47.490;19.030;2023-03-12T09:16:44;100029.25;;;24.18;14.15
67980;BME280;54760;47.490;19.030;2023-03-12T09:19:10;100029.44;;;24.37;14.07
67980;BME280;54760;47.490;19.030;2023-03-12T09:21:36;100024.25;;;24.57;13.99
67980;BME280;54760;47.490;19.030;2023-03-12T09:24:01;100016.19;;;25.25;14.44
67980;BME280;54760;47.490;19.030;2023-03-12T09:26:27;100035.94;;;23.09;15.05
67980;BME280;54760;47.490;19.030;2023-03-12T09:28:52;100056.50;;;23.17;15.66
67980;BME280;54760;47.490;19.030;2023-03-12T09:31:18;100049.09;;;25.19;14.76
67980;BME280;54760;47.490;19.030;2023-03-12T09:33:43;100012.25;;;25.93;13.38
67980;BME280;54760;47.490;19.030;2023-03-12T09:36:09;99983.66;;;26.19;12.88
67980;BME280;54760;47.490;19.030;2023-03-12T09:38:34;99982.78;;;23.98;14.70
67980;BME280;54760;47.490;19.030;2023-03-12T09:41:04;99987.41;;;26.46;13.23
67980;BME280;54760;47.490;19.030;2023-03-12T09:43:39;99979.22;;;26.05;12.83
67980;BME280;54760;47.490;19.030;2023-03-12T09:46:14;99974.12;;;26.46;12.15
67980;BME280;54760;47.490;19.030;2023-03-12T09:48:42;99972.47;;;25.95;12.48
67980;BME280;54760;47.490;19.030;2023-03-12T09:51:16;99972.59;;;26.45;12.72
67980;BME280;54760;47.490;19.030;2023-03-12T09:53:51;99965.59;;;25.71;12.65
67980;BME280;54760;47.490;19.030;2023-03-12T09:56:19;99972.22;;;27.37;11.85
67980;BME280;54760;47.490;19.030;2023-03-12T09:58:46;99966.31;;;26.58;13.29
67980;BME280;54760;47.490;19.030;2023-03-12T10:01:33;100038.53;;;25.36;12.98
67980;BME280;54760;47.490;19.030;2023-03-12T10:04:17;100039.00;;;26.99;11.79
67980;BME280;54760;47.490;19.030;2023-03-12T10:06:54;100035.34;;;26.29;13.32
67980;BME280;54760;47.490;19.030;2023-03-12T10:15:04;99997.41;;;28.14;11.20
67980;BME280;54760;47.490;19.030;2023-03-12T10:25:50;100029.84;;;27.88;11.21
67980;BME280;54760;47.490;19.030;2023-03-12T10:28:21;100021.62;;;28.30;10.90
67980;BME280;54760;47.490;19.030;2023-03-12T10:30:59;100047.16;;;26.59;11.72
67980;BME280;54760;47.490;19.030;2023-03-12T10:33:37;100046.81;;;27.83;10.93
67980;BME280;54760;47.490;19.030;2023-03-12T10:36:17;100039.91;;;27.07;11.55
67980;BME280;54760;47.490;19.030;2023-03-12T10:38:44;100037.75;;;28.42;10.58
67980;BME280;54760;47.490;19.030;2023-03-12T10:41:13;100042.91;;;27.09;11.28
67980;BME280;54760;47.490;19.030;2023-03-12T10:43:40;100036.41;;;27.65;10.47
67980;BME280;54760;47.490;19.030;2023-03-12T10:46:46;100031.59;;;28.31;10.06
67980;BME280;54760;47.490;19.030;2023-03-12T10:52:20;100056.16;;;24.90;12.03
67980;BME280;54760;47.490;19.030;2023-03-12T10:54:47;100059.72;;;24.33;11.61
67980;BME280;54760;47.490;19.030;2023-03-12T10:57:14;100051.06;;;26.94;11.50
67980;BME280;54760;47.490;19.030;2023-03-12T10:59:42;100049.19;;;27.66;9.95
67980;BME280;54760;47.490;19.030;2023-03-12T11:02:42;100063.75;;;25.66;9.87
67980;BME280;54760;47.490;19.030;2023-03-12T11:05:47;100051.66;;;25.76;10.32
67980;BME280;54760;47.490;19.030;2023-03-12T11:08:24;100064.63;;;23.43;11.58
67980;BME280;54760;47.490;19.030;2023-03-12T11:10:51;100067.69;;;23.34;11.29
67980;BME280;54760;47.490;19.030;2023-03-12T11:13:32;100051.38;;;24.05;11.61
67980;BME280;54760;47.490;19.030;2023-03-12T11:18:55;100049.09;;;25.49;9.91
67980;BME280;54760;47.490;19.030;2023-03-12T11:21:21;100047.03;;;26.52;9.44
67980;BME280;54760;47.490;19.030;2023-03-12T11:26:31;100046.12;;;26.62;8.69
67980;BME280;54760;47.490;19.030;2023-03-12T11:29:22;100051.78;;;25.65;9.22
67980;BME280;54760;47.490;19.030;2023-03-12T11:34:34;100041.31;;;25.36;10.35
67980;BME280;54760;47.490;19.030;2023-03-12T11:42:44;100045.91;;;24.46;8.78
67980;BME280;54760;47.490;19.030;2023-03-12T11:56:43;100050.66;;;23.15;14.42
67980;BME280;54760;47.490;19.030;2023-03-12T11:59:41;100039.53;;;24.97;9.83
67980;BME280;54760;47.490;19.030;2023-03-12T12:11:01;100029.81;;;22.94;10.91
67980;BME280;54760;47.490;19.030;2023-03-12T12:27:28;100021.88;;;21.06;12.15
67980;BME280;54760;47.490;19.030;2023-03-12T12:32:39;100014.91;;;22.32;14.09
67980;BME280;54760;47.490;19.030;2023-03-12T12:35:26;100012.38;;;21.86;12.22
67980;BME280;54760;47.490;19.030;2023-03-12T12:40:23;100014.78;;;24.03;15.87
67980;BME280;54760;47.490;19.030;2023-03-12T12:45:23;100018.22;;;22.36;14.50
67980;BME280;54760;47.490;19.030;2023-03-12T12:48:13;100021.25;;;21.48;16.39
67980;BME280;54760;47.490;19.030;2023-03-12T12:50:42;100020.72;;;22.23;11.35
67980;BME280;54760;47.490;19.030;2023-03-12T12:53:24;100029.84;;;23.27;15.60
67980;BME280;54760;47.490;19.030;2023-03-12T12:55:58;100020.72;;;23.44;12.32
67980;BME280;54760;47.490;19.030;2023-03-12T13:01:20;100013.09;;;23.05;11.56
67980;BME280;54760;47.490;19.030;2023-03-12T13:03:46;100022.69;;;21.12;10.63
67980;BME280;54760;47.490;19.030;2023-03-12T13:06:13;100026.66;;;21.62;12.59
67980;BME280;54760;47.490;19.030;2023-03-12T13:13:38;100028.16;;;21.01;12.88
67980;BME280;54760;47.490;19.030;2023-03-12T13:16:33;100019.50;;;20.47;12.81
67980;BME280;54760;47.490;19.030;2023-03-12T13:21:35;100017.81;;;21.07;13.98
67980;BME280;54760;47.490;19.030;2023-03-12T13:26:57;100009.47;;;21.07;12.58
67980;BME280;54760;47.490;19.030;2023-03-12T13:31:55;100020.28;;;19.93;16.78
67980;BME280;54760;47.490;19.030;2023-03-12T13:36:50;100018.62;;;20.82;21.59
67980;BME280;54760;47.490;19.030;2023-03-12T13:46:48;100040.00;;;20.50;14.75
67980;BME280;54760;47.490;19.030;2023-03-12T13:49:21;100035.16;;;20.91;15.24
67980;BME280;54760;47.490;19.030;2023-03-12T13:52:23;100030.87;;;20.95;14.04
67980;BME280;54760;47.490;19.030;2023-03-12T13:54:58;100028.22;;;20.00;16.81
67980;BME280;54760;47.490;19.030;2023-03-12T13:57:32;100031.50;;;19.34;15.67
67980;BME280;54760;47.490;19.030;2023-03-12T13:59:58;100036.34;;;17.61;14.49
67980;BME280;54760;47.490;19.030;2023-03-12T14:02:32;100042.53;;;17.47;13.55
67980;BME280;54760;47.490;19.030;2023-03-12T14:05:06;100049.59;;;16.61;13.60
67980;BME280;54760;47.490;19.030;2023-03-12T14:07:53;100045.03;;;17.27;13.99
67980;BME280;54760;47.490;19.030;2023-03-12T14:13:15;100035.38;;;18.45;12.64
67980;BME280;54760;47.490;19.030;2023-03-12T14:15:59;100036.84;;;18.16;12.69
67980;BME280;54760;47.490;19.030;2023-03-12T14:18:29;100050.28;;;17.25;13.64
67980;BME280;54760;47.490;19.030;2023-03-12T14:21:00;100041.53;;;18.25;13.02
67980;BME280;54760;47.490;19.030;2023-03-12T14:23:38;100050.78;;;17.05;13.23
67980;BME280;54760;47.490;19.030;2023-03-12T14:26:06;100054.56;;;15.37;13.90
67980;BME280;54760;47.490;19.030;2023-03-12T14:28:38;100048.41;;;16.03;13.31
67980;BME280;54760;47.490;19.030;2023-03-12T14:31:12;100056.78;;;15.82;13.18
67980;BME280;54760;47.490;19.030;2023-03-12T14:34:02;100052.62;;;16.35;12.93
67980;BME280;54760;47.490;19.030;2023-03-12T14:36:57;100051.25;;;16.49;12.34
67980;BME280;54760;47.490;19.030;2023-03-12T14:39:45;100048.56;;;16.09;13.72
67980;BME280;54760;47.490;19.030;2023-03-12T14:42:20;100051.88;;;15.86;14.43
67980;BME280;54760;47.490;19.030;2023-03-12T14:47:38;100049.53;;;14.23;16.09